Greenbush, MN (56726)

2:24 PM CDT on September 02, 2015 (GMT -0500)
APRSWXNET | | Change Station
CLOSE
Current Station
Personal Weather Station
Location: Pencer, MN
Elevation: 1082 ft
Nearby Weather Stations

Elev 1082 ft 48.85 °N, 95.80 °W | Updated 16 minutes ago

Clear
Clear
86 °F
Feels Like 91 °F
N
6
Wind Variable Wind from South
Gusts 15.0 mph

Today
High -- | Low -- °F
--% Chance of Precip.
Yesterday
High -- | Low -- °F
Precip. -- in
6:42 AM 8:05 PM
Waning Gibbous, 78% visible
Pressure 29.85 in
Visibility 10.0 miles
Clouds Clear
Heat Index 91 °F
Dew Point 70 °F
Humidity 59%
Rainfall in
Snow Depth Not available.
UV 7 out of 12
Pollen 11.00 out of 12
Air Quality Not available.
Flu Activity Not available.
METAR KROX 021914Z AUTO 16009KT 10SM CLR 31/21 A2985 RMK AO2
Pressure 29.85 in
Visibility 10.0 miles
Clouds Clear
Heat Index 91 °F
Dew Point 70 °F
Humidity 59%
Rainfall in
Snow Depth Not available.
UV 7 out of 12
Pollen 11.00 out of 12
Air Quality Not available.
Flu Activity Not available.
METAR KROX 021914Z AUTO 16009KT 10SM CLR 31/21 A2985 RMK AO2

10-Day Weather Forecast

×

Almanac

Astronomy

Sep. 02, 2015 Rise Set
Actual Time
Civil Twilight
Nautical Twilight
Astronomical Twilight
Moon
Length of Visible Light
Length of Day
Tomorrow will be .
, % of the Moon is Illuminated

Today's Extremes

State Highs State Lows

Community

WunderPhotos

Upload Photos

1,851,799 photos uploaded!

WunderBlogs® & News

Nearby

Air Quality

  Air Quality AQ Index Pollutant
Not available.

Snow Depth

Station Depth Elevation

Earthquake Activity

City Distance Mag. Time & Date
Minimum magnitude displayed is 2.5.

Coastal Water Temperatures

Place Temperature

Stations

Nearby Weather Stations

Station Location Temp. Windchill Dew Point Humidity Wind Precip. Elev Updated Type